sensor_id;sensor_type;location;lat;lon;timestamp;pressure;altitude;pressure_sealevel;temperature;humidity
69528;BME280;57136;51.986;4.468;2023-03-04T00:00:14;102870.19;;;6.54;88.43
69528;BME280;57136;51.986;4.468;2023-03-04T00:02:40;102879.09;;;6.59;88.27
69528;BME280;57136;51.986;4.468;2023-03-04T00:05:05;102873.94;;;6.59;88.59
69528;BME280;57136;51.986;4.468;2023-03-04T00:07:31;102880.97;;;6.62;88.59
69528;BME280;57136;51.986;4.468;2023-03-04T00:09:56;102874.72;;;6.74;88.26
69528;BME280;57136;51.986;4.468;2023-03-04T00:12:21;102877.72;;;6.66;88.68
69528;BME280;57136;51.986;4.468;2023-03-04T00:14:46;102874.16;;;6.64;88.97
69528;BME280;57136;51.986;4.468;2023-03-04T00:17:11;102878.19;;;6.58;88.85
69528;BME280;57136;51.986;4.468;2023-03-04T00:19:37;102873.19;;;6.62;88.93
69528;BME280;57136;51.986;4.468;2023-03-04T00:22:02;102872.47;;;6.64;88.53
69528;BME280;57136;51.986;4.468;2023-03-04T00:24:28;102875.94;;;6.65;88.11
69528;BME280;57136;51.986;4.468;2023-03-04T00:26:53;102872.38;;;6.46;88.55
69528;BME280;57136;51.986;4.468;2023-03-04T00:29:20;102872.63;;;6.51;89.34
69528;BME280;57136;51.986;4.468;2023-03-04T00:31:46;102873.19;;;6.45;89.79
69528;BME280;57136;51.986;4.468;2023-03-04T00:34:11;102872.94;;;6.57;89.11
69528;BME280;57136;51.986;4.468;2023-03-04T00:36:36;102876.91;;;6.50;89.53
69528;BME280;57136;51.986;4.468;2023-03-04T00:39:02;102875.31;;;6.52;89.05
69528;BME280;57136;51.986;4.468;2023-03-04T00:41:27;102873.06;;;6.43;89.02
69528;BME280;57136;51.986;4.468;2023-03-04T00:43:52;102868.25;;;6.50;89.50
69528;BME280;57136;51.986;4.468;2023-03-04T00:46:17;102869.66;;;6.76;88.31
69528;BME280;57136;51.986;4.468;2023-03-04T00:48:43;102861.28;;;6.82;87.68
69528;BME280;57136;51.986;4.468;2023-03-04T00:51:08;102867.94;;;6.60;88.62
69528;BME280;57136;51.986;4.468;2023-03-04T00:53:33;102869.31;;;6.70;88.94
69528;BME280;57136;51.986;4.468;2023-03-04T00:55:58;102864.69;;;6.81;88.09
69528;BME280;57136;51.986;4.468;2023-03-04T00:58:23;102872.88;;;6.72;89.02
69528;BME280;57136;51.986;4.468;2023-03-04T01:00:48;102862.50;;;6.72;88.76
69528;BME280;57136;51.986;4.468;2023-03-04T01:03:14;102869.16;;;6.67;89.20
69528;BME280;57136;51.986;4.468;2023-03-04T01:05:39;102863.66;;;6.77;88.08
69528;BME280;57136;51.986;4.468;2023-03-04T01:08:05;102860.53;;;6.35;89.52
69528;BME280;57136;51.986;4.468;2023-03-04T01:10:30;102882.03;;;6.17;89.77
69528;BME280;57136;51.986;4.468;2023-03-04T01:12:56;102872.75;;;5.76;90.34
69528;BME280;57136;51.986;4.468;2023-03-04T01:15:21;102867.75;;;6.09;89.13
69528;BME280;57136;51.986;4.468;2023-03-04T01:17:46;102864.47;;;6.28;88.55
69528;BME280;57136;51.986;4.468;2023-03-04T01:20:12;102864.19;;;6.38;87.46
69528;BME280;57136;51.986;4.468;2023-03-04T01:22:37;102866.78;;;6.38;86.68
69528;BME280;57136;51.986;4.468;2023-03-04T01:25:04;102865.34;;;6.12;88.33
69528;BME280;57136;51.986;4.468;2023-03-04T01:27:30;102860.63;;;6.36;86.94
69528;BME280;57136;51.986;4.468;2023-03-04T01:29:55;102852.59;;;6.32;87.12
69528;BME280;57136;51.986;4.468;2023-03-04T01:32:20;102852.06;;;6.37;87.05
69528;BME280;57136;51.986;4.468;2023-03-04T01:34:45;102849.47;;;6.37;87.47
69528;BME280;57136;51.986;4.468;2023-03-04T01:37:11;102848.44;;;6.50;86.46
69528;BME280;57136;51.986;4.468;2023-03-04T01:39:38;102846.97;;;6.72;85.65
69528;BME280;57136;51.986;4.468;2023-03-04T01:42:03;102843.72;;;6.59;86.47
69528;BME280;57136;51.986;4.468;2023-03-04T01:44:28;102846.00;;;6.53;86.22
69528;BME280;57136;51.986;4.468;2023-03-04T01:46:54;102834.91;;;6.56;86.91
69528;BME280;57136;51.986;4.468;2023-03-04T01:49:20;102837.09;;;6.65;86.54
69528;BME280;57136;51.986;4.468;2023-03-04T01:51:54;102839.44;;;6.60;86.54
69528;BME280;57136;51.986;4.468;2023-03-04T01:54:21;102832.97;;;6.68;86.94
69528;BME280;57136;51.986;4.468;2023-03-04T01:56:47;102825.91;;;6.66;86.49
69528;BME280;57136;51.986;4.468;2023-03-04T01:59:14;102817.72;;;6.74;86.30
69528;BME280;57136;51.986;4.468;2023-03-04T02:01:42;102825.66;;;6.78;85.94
69528;BME280;57136;51.986;4.468;2023-03-04T02:04:09;102815.28;;;6.78;86.13
69528;BME280;57136;51.986;4.468;2023-03-04T02:06:35;102812.63;;;6.76;86.74
69528;BME280;57136;51.986;4.468;2023-03-04T02:09:01;102807.19;;;6.71;86.79
69528;BME280;57136;51.986;4.468;2023-03-04T02:11:26;102805.19;;;6.49;88.16
69528;BME280;57136;51.986;4.468;2023-03-04T02:13:51;102802.28;;;6.43;88.76
69528;BME280;57136;51.986;4.468;2023-03-04T02:16:17;102802.84;;;6.37;88.49
69528;BME280;57136;51.986;4.468;2023-03-04T02:18:42;102801.44;;;6.27;89.30
69528;BME280;57136;51.986;4.468;2023-03-04T02:21:41;102799.22;;;6.50;88.28
69528;BME280;57136;51.986;4.468;2023-03-04T02:26:28;102799.75;;;6.44;87.99
69528;BME280;57136;51.986;4.468;2023-03-04T02:28:54;102794.72;;;6.14;88.94
69528;BME280;57136;51.986;4.468;2023-03-04T02:31:39;102794.34;;;6.40;88.12
69528;BME280;57136;51.986;4.468;2023-03-04T02:34:06;102788.50;;;6.44;88.23
69528;BME280;57136;51.986;4.468;2023-03-04T02:36:34;102786.31;;;6.52;87.97
69528;BME280;57136;51.986;4.468;2023-03-04T02:39:04;102786.31;;;6.52;87.88
69528;BME280;57136;51.986;4.468;2023-03-04T02:41:31;102783.56;;;6.32;88.79
69528;BME280;57136;51.986;4.468;2023-03-04T02:43:57;102783.88;;;6.22;89.22
69528;BME280;57136;51.986;4.468;2023-03-04T02:46:22;102779.44;;;6.19;89.29
69528;BME280;57136;51.986;4.468;2023-03-04T02:48:48;102784.44;;;6.16;89.68
69528;BME280;57136;51.986;4.468;2023-03-04T02:51:13;102782.16;;;6.06;89.69
69528;BME280;57136;51.986;4.468;2023-03-04T02:53:41;102770.06;;;6.38;88.54
69528;BME280;57136;51.986;4.468;2023-03-04T02:56:07;102770.28;;;6.26;88.51
69528;BME280;57136;51.986;4.468;2023-03-04T02:58:32;102774.00;;;6.14;88.78
69528;BME280;57136;51.986;4.468;2023-03-04T03:00:58;102778.69;;;6.05;88.92
69528;BME280;57136;51.986;4.468;2023-03-04T03:03:23;102770.81;;;6.35;87.98
69528;BME280;57136;51.986;4.468;2023-03-04T03:05:48;102772.06;;;6.43;87.69
69528;BME280;57136;51.986;4.468;2023-03-04T03:08:13;102776.28;;;6.58;86.57
69528;BME280;57136;51.986;4.468;2023-03-04T03:10:41;102776.78;;;6.51;87.00
69528;BME280;57136;51.986;4.468;2023-03-04T03:13:07;102774.41;;;6.72;86.51
69528;BME280;57136;51.986;4.468;2023-03-04T03:15:35;102776.25;;;6.74;86.10
69528;BME280;57136;51.986;4.468;2023-03-04T03:18:02;102774.19;;;6.67;87.05
69528;BME280;57136;51.986;4.468;2023-03-04T03:20:28;102775.06;;;6.68;86.79
69528;BME280;57136;51.986;4.468;2023-03-04T03:22:53;102775.09;;;6.51;87.19
69528;BME280;57136;51.986;4.468;2023-03-04T03:25:18;102768.69;;;6.28;87.30
69528;BME280;57136;51.986;4.468;2023-03-04T03:27:43;102773.13;;;6.47;86.78
69528;BME280;57136;51.986;4.468;2023-03-04T03:30:10;102770.38;;;6.44;86.60
69528;BME280;57136;51.986;4.468;2023-03-04T03:32:36;102768.00;;;6.15;86.91
69528;BME280;57136;51.986;4.468;2023-03-04T03:35:02;102768.19;;;6.19;87.25
69528;BME280;57136;51.986;4.468;2023-03-04T03:37:27;102770.97;;;6.38;86.17
69528;BME280;57136;51.986;4.468;2023-03-04T03:39:52;102765.34;;;6.14;87.53
69528;BME280;57136;51.986;4.468;2023-03-04T03:42:18;102770.53;;;6.14;87.31
69528;BME280;57136;51.986;4.468;2023-03-04T03:44:43;102770.53;;;6.30;86.63
69528;BME280;57136;51.986;4.468;2023-03-04T03:47:08;102773.22;;;6.32;87.03
69528;BME280;57136;51.986;4.468;2023-03-04T03:49:33;102769.16;;;6.21;87.75
69528;BME280;57136;51.986;4.468;2023-03-04T03:51:59;102765.59;;;6.19;88.06
69528;BME280;57136;51.986;4.468;2023-03-04T03:54:24;102764.94;;;6.23;87.96
69528;BME280;57136;51.986;4.468;2023-03-04T03:56:49;102769.16;;;6.21;87.52
69528;BME280;57136;51.986;4.468;2023-03-04T03:59:14;102766.66;;;6.22;88.19
69528;BME280;57136;51.986;4.468;2023-03-04T04:01:40;102770.28;;;6.26;87.56
69528;BME280;57136;51.986;4.468;2023-03-04T04:04:05;102765.94;;;6.08;88.96
69528;BME280;57136;51.986;4.468;2023-03-04T04:06:30;102763.75;;;5.84;90.35
69528;BME280;57136;51.986;4.468;2023-03-04T04:08:55;102771.44;;;5.99;90.29
69528;BME280;57136;51.986;4.468;2023-03-04T04:11:21;102769.56;;;6.12;89.36
69528;BME280;57136;51.986;4.468;2023-03-04T04:13:47;102774.03;;;6.31;88.65
69528;BME280;57136;51.986;4.468;2023-03-04T04:16:12;102771.41;;;6.14;89.37
69528;BME280;57136;51.986;4.468;2023-03-04T04:18:38;102768.78;;;5.98;89.76
69528;BME280;57136;51.986;4.468;2023-03-04T04:21:03;102771.00;;;6.07;89.13
69528;BME280;57136;51.986;4.468;2023-03-04T04:23:29;102763.56;;;6.13;88.59
69528;BME280;57136;51.986;4.468;2023-03-04T04:25:54;102769.50;;;6.10;89.44
69528;BME280;57136;51.986;4.468;2023-03-04T04:28:21;102765.03;;;6.08;90.73
69528;BME280;57136;51.986;4.468;2023-03-04T04:30:47;102767.72;;;5.94;92.53
69528;BME280;57136;51.986;4.468;2023-03-04T04:33:12;102768.59;;;6.10;92.51
69528;BME280;57136;51.986;4.468;2023-03-04T04:35:37;102769.84;;;6.02;93.21
69528;BME280;57136;51.986;4.468;2023-03-04T04:38:03;102772.94;;;6.11;93.37
69528;BME280;57136;51.986;4.468;2023-03-04T04:40:29;102773.69;;;6.08;93.58
69528;BME280;57136;51.986;4.468;2023-03-04T04:42:54;102769.56;;;6.12;93.23
69528;BME280;57136;51.986;4.468;2023-03-04T04:45:21;102769.97;;;6.03;93.11
69528;BME280;57136;51.986;4.468;2023-03-04T04:47:48;102773.34;;;6.02;92.21
69528;BME280;57136;51.986;4.468;2023-03-04T04:50:13;102773.94;;;5.81;91.77
69528;BME280;57136;51.986;4.468;2023-03-04T04:52:39;102781.31;;;5.90;89.87
69528;BME280;57136;51.986;4.468;2023-03-04T04:55:05;102776.50;;;6.29;88.11
69528;BME280;57136;51.986;4.468;2023-03-04T04:57:31;102780.59;;;6.41;87.05
69528;BME280;57136;51.986;4.468;2023-03-04T04:59:57;102774.97;;;6.17;87.50
69528;BME280;57136;51.986;4.468;2023-03-04T05:02:22;102783.41;;;6.29;87.00
69528;BME280;57136;51.986;4.468;2023-03-04T05:04:47;102777.19;;;6.25;87.36
69528;BME280;57136;51.986;4.468;2023-03-04T05:07:12;102785.53;;;6.36;86.92
69528;BME280;57136;51.986;4.468;2023-03-04T05:09:37;102778.63;;;6.37;86.97
69528;BME280;57136;51.986;4.468;2023-03-04T05:12:03;102783.47;;;6.30;87.39
69528;BME280;57136;51.986;4.468;2023-03-04T05:14:28;102775.25;;;6.38;87.10
69528;BME280;57136;51.986;4.468;2023-03-04T05:16:53;102774.59;;;6.42;87.01
69528;BME280;57136;51.986;4.468;2023-03-04T05:19:19;102779.03;;;6.44;87.62
69528;BME280;57136;51.986;4.468;2023-03-04T05:21:44;102775.56;;;6.44;87.46
69528;BME280;57136;51.986;4.468;2023-03-04T05:24:09;102776.72;;;6.49;88.10
69528;BME280;57136;51.986;4.468;2023-03-04T05:26:35;102776.78;;;6.51;88.18
69528;BME280;57136;51.986;4.468;2023-03-04T05:29:00;102773.13;;;6.47;88.82
69528;BME280;57136;51.986;4.468;2023-03-04T05:31:25;102774.53;;;6.40;90.02
69528;BME280;57136;51.986;4.468;2023-03-04T05:33:51;102775.47;;;6.42;90.76
69528;BME280;57136;51.986;4.468;2023-03-04T05:36:16;102776.94;;;6.37;91.07
69528;BME280;57136;51.986;4.468;2023-03-04T05:38:41;102770.56;;;6.47;90.69
69528;BME280;57136;51.986;4.468;2023-03-04T05:41:06;102769.88;;;6.35;91.76
69528;BME280;57136;51.986;4.468;2023-03-04T05:43:32;102765.09;;;6.42;91.52
69528;BME280;57136;51.986;4.468;2023-03-04T05:45:59;102770.00;;;6.36;91.76
69528;BME280;57136;51.986;4.468;2023-03-04T05:48:25;102770.63;;;6.49;91.25
69528;BME280;57136;51.986;4.468;2023-03-04T05:50:54;102766.19;;;6.46;91.16
69528;BME280;57136;51.986;4.468;2023-03-04T05:53:19;102771.84;;;6.39;91.47
69528;BME280;57136;51.986;4.468;2023-03-04T05:55:45;102770.06;;;6.38;91.58
69528;BME280;57136;51.986;4.468;2023-03-04T05:58:14;102760.97;;;6.29;91.48
69528;BME280;57136;51.986;4.468;2023-03-04T06:00:39;102764.63;;;6.17;92.49
69528;BME280;57136;51.986;4.468;2023-03-04T06:03:05;102759.53;;;6.18;92.43
69528;BME280;57136;51.986;4.468;2023-03-04T06:05:30;102764.78;;;6.20;92.12
69528;BME280;57136;51.986;4.468;2023-03-04T06:07:55;102766.72;;;6.24;92.30
69528;BME280;57136;51.986;4.468;2023-03-04T06:10:20;102760.44;;;6.35;91.35
69528;BME280;57136;51.986;4.468;2023-03-04T06:12:46;102759.94;;;6.42;91.34
69528;BME280;57136;51.986;4.468;2023-03-04T06:15:11;102763.25;;;6.40;91.61
69528;BME280;57136;51.986;4.468;2023-03-04T06:17:37;102763.50;;;6.44;91.18
69528;BME280;57136;51.986;4.468;2023-03-04T06:20:03;102764.06;;;6.39;91.98
69528;BME280;57136;51.986;4.468;2023-03-04T06:22:30;102772.38;;;6.17;92.99
69528;BME280;57136;51.986;4.468;2023-03-04T06:24:56;102774.91;;;6.32;94.13
69528;BME280;57136;51.986;4.468;2023-03-04T06:27:21;102774.28;;;6.52;93.27
69528;BME280;57136;51.986;4.468;2023-03-04T06:29:46;102776.78;;;6.51;93.70
69528;BME280;57136;51.986;4.468;2023-03-04T06:32:11;102778.22;;;6.45;94.45
69528;BME280;57136;51.986;4.468;2023-03-04T06:34:37;102782.19;;;6.39;95.18
69528;BME280;57136;51.986;4.468;2023-03-04T06:37:02;102773.69;;;6.41;96.12
69528;BME280;57136;51.986;4.468;2023-03-04T06:39:27;102774.66;;;6.27;97.71
69528;BME280;57136;51.986;4.468;2023-03-04T06:41:52;102778.06;;;6.26;99.08
69528;BME280;57136;51.986;4.468;2023-03-04T06:44:17;102778.06;;;6.42;98.24
69528;BME280;57136;51.986;4.468;2023-03-04T06:46:43;102777.03;;;6.39;98.35
69528;BME280;57136;51.986;4.468;2023-03-04T06:49:08;102781.72;;;6.46;98.17
69528;BME280;57136;51.986;4.468;2023-03-04T06:54:04;102786.25;;;6.50;99.13
69528;BME280;57136;51.986;4.468;2023-03-04T06:56:29;102785.34;;;6.50;98.87
69528;BME280;57136;51.986;4.468;2023-03-04T06:58:54;102785.34;;;6.50;99.01
69528;BME280;57136;51.986;4.468;2023-03-04T07:01:24;102791.03;;;6.59;99.21
69528;BME280;57136;51.986;4.468;2023-03-04T07:03:50;102790.06;;;6.57;99.16
69528;BME280;57136;51.986;4.468;2023-03-04T07:06:18;102796.69;;;6.68;99.06
69528;BME280;57136;51.986;4.468;2023-03-04T07:08:44;102795.22;;;6.73;98.61
69528;BME280;57136;51.986;4.468;2023-03-04T07:11:10;102795.16;;;6.72;99.06
69528;BME280;57136;51.986;4.468;2023-03-04T07:13:35;102796.34;;;6.79;98.92
69528;BME280;57136;51.986;4.468;2023-03-04T07:16:02;102798.50;;;6.87;98.26
69528;BME280;57136;51.986;4.468;2023-03-04T07:18:28;102794.63;;;6.96;97.62
69528;BME280;57136;51.986;4.468;2023-03-04T07:20:53;102795.91;;;7.04;96.52
69528;BME280;57136;51.986;4.468;2023-03-04T07:23:19;102799.31;;;7.03;95.58
69528;BME280;57136;51.986;4.468;2023-03-04T07:25:44;102813.97;;;7.02;95.64
69528;BME280;57136;51.986;4.468;2023-03-04T07:28:09;102816.66;;;7.04;95.31
69528;BME280;57136;51.986;4.468;2023-03-04T07:30:34;102816.34;;;6.98;95.40
69528;BME280;57136;51.986;4.468;2023-03-04T07:33:00;102811.00;;;6.62;97.67
69528;BME280;57136;51.986;4.468;2023-03-04T07:35:25;102812.16;;;6.50;99.53
69528;BME280;57136;51.986;4.468;2023-03-04T07:37:50;102812.16;;;6.50;100.00
69528;BME280;57136;51.986;4.468;2023-03-04T07:40:15;102818.53;;;6.57;100.00
69528;BME280;57136;51.986;4.468;2023-03-04T07:42:40;102812.88;;;6.64;100.00
69528;BME280;57136;51.986;4.468;2023-03-04T07:45:06;102816.91;;;6.75;99.72
69528;BME280;57136;51.986;4.468;2023-03-04T07:47:31;102827.19;;;6.90;100.00
69528;BME280;57136;51.986;4.468;2023-03-04T07:49:57;102825.25;;;7.03;99.02
69528;BME280;57136;51.986;4.468;2023-03-04T07:52:22;102834.50;;;7.50;99.34
69528;BME280;57136;51.986;4.468;2023-03-04T07:54:47;102836.88;;;7.82;97.89
69528;BME280;57136;51.986;4.468;2023-03-04T07:57:13;102834.72;;;8.09;96.45
69528;BME280;57136;51.986;4.468;2023-03-04T07:59:43;102842.97;;;8.01;94.35
69528;BME280;57136;51.986;4.468;2023-03-04T08:02:08;102841.50;;;8.06;94.19
69528;BME280;57136;51.986;4.468;2023-03-04T08:04:42;102835.84;;;7.78;96.13
69528;BME280;57136;51.986;4.468;2023-03-04T08:07:07;102841.84;;;7.77;97.69
69528;BME280;57136;51.986;4.468;2023-03-04T08:09:32;102838.34;;;7.95;99.06
69528;BME280;57136;51.986;4.468;2023-03-04T08:11:57;102830.84;;;8.19;98.04
69528;BME280;57136;51.986;4.468;2023-03-04T08:14:23;102825.31;;;8.31;97.34
69528;BME280;57136;51.986;4.468;2023-03-04T08:16:48;102830.97;;;8.60;96.44
69528;BME280;57136;51.986;4.468;2023-03-04T08:19:19;102834.13;;;8.73;93.99
69528;BME280;57136;51.986;4.468;2023-03-04T08:21:44;102827.97;;;8.71;92.29
69528;BME280;57136;51.986;4.468;2023-03-04T08:24:11;102830.69;;;8.93;91.69
69528;BME280;57136;51.986;4.468;2023-03-04T08:26:37;102830.84;;;8.39;90.85
69528;BME280;57136;51.986;4.468;2023-03-04T08:29:05;102827.28;;;8.55;90.27
69528;BME280;57136;51.986;4.468;2023-03-04T08:31:30;102824.69;;;8.75;90.70
69528;BME280;57136;51.986;4.468;2023-03-04T08:33:56;102831.97;;;8.44;90.81
69528;BME280;57136;51.986;4.468;2023-03-04T08:36:21;102832.97;;;9.07;90.43
69528;BME280;57136;51.986;4.468;2023-03-04T08:38:49;102832.75;;;9.43;89.03
69528;BME280;57136;51.986;4.468;2023-03-04T08:41:15;102832.31;;;9.53;85.34
69528;BME280;57136;51.986;4.468;2023-03-04T08:43:41;102832.38;;;9.55;85.51
69528;BME280;57136;51.986;4.468;2023-03-04T08:46:06;102840.41;;;8.97;88.36
69528;BME280;57136;51.986;4.468;2023-03-04T08:48:32;102840.03;;;9.09;89.79
69528;BME280;57136;51.986;4.468;2023-03-04T08:50:57;102840.81;;;8.87;92.74
69528;BME280;57136;51.986;4.468;2023-03-04T08:53:23;102840.53;;;8.81;93.96
69528;BME280;57136;51.986;4.468;2023-03-04T08:55:49;102833.69;;;8.44;96.81
69528;BME280;57136;51.986;4.468;2023-03-04T08:58:14;102820.47;;;8.39;98.08
69528;BME280;57136;51.986;4.468;2023-03-04T09:00:41;102829.03;;;8.36;100.00
69528;BME280;57136;51.986;4.468;2023-03-04T09:03:07;102819.06;;;8.46;100.00
69528;BME280;57136;51.986;4.468;2023-03-04T09:05:32;102820.00;;;8.48;99.85
69528;BME280;57136;51.986;4.468;2023-03-04T09:07:57;102816.28;;;8.61;100.00
69528;BME280;57136;51.986;4.468;2023-03-04T09:10:23;102820.88;;;8.66;100.00
69528;BME280;57136;51.986;4.468;2023-03-04T09:12:48;102817.63;;;8.92;99.64
69528;BME280;57136;51.986;4.468;2023-03-04T09:15:13;102817.81;;;8.96;98.26
69528;BME280;57136;51.986;4.468;2023-03-04T09:17:42;102814.63;;;9.44;97.59
69528;BME280;57136;51.986;4.468;2023-03-04T09:20:07;102805.38;;;9.97;97.23
69528;BME280;57136;51.986;4.468;2023-03-04T09:22:34;102809.03;;;10.47;91.72
69528;BME280;57136;51.986;4.468;2023-03-04T09:24:59;102803.16;;;11.29;88.80
69528;BME280;57136;51.986;4.468;2023-03-04T09:27:24;102809.06;;;11.23;84.29
69528;BME280;57136;51.986;4.468;2023-03-04T09:29:50;102817.13;;;10.79;84.93
69528;BME280;57136;51.986;4.468;2023-03-04T09:32:16;102810.97;;;10.77;86.50
69528;BME280;57136;51.986;4.468;2023-03-04T09:34:41;102821.91;;;9.97;91.68
69528;BME280;57136;51.986;4.468;2023-03-04T09:37:07;102811.13;;;9.88;92.45
69528;BME280;57136;51.986;4.468;2023-03-04T09:39:32;102802.34;;;9.42;95.84
69528;BME280;57136;51.986;4.468;2023-03-04T09:41:57;102807.66;;;9.43;96.76
69528;BME280;57136;51.986;4.468;2023-03-04T09:44:32;102810.94;;;9.18;99.01
69528;BME280;57136;51.986;4.468;2023-03-04T09:47:05;102815.50;;;9.24;98.05
69528;BME280;57136;51.986;4.468;2023-03-04T09:49:32;102811.31;;;10.15;96.93
69528;BME280;57136;51.986;4.468;2023-03-04T09:56:56;102799.66;;;12.43;79.91
69528;BME280;57136;51.986;4.468;2023-03-04T09:59:24;102799.06;;;12.21;77.98
69528;BME280;57136;51.986;4.468;2023-03-04T10:01:52;102795.53;;;11.63;79.21
69528;BME280;57136;51.986;4.468;2023-03-04T10:06:54;102803.09;;;10.52;85.13
69528;BME280;57136;51.986;4.468;2023-03-04T10:09:42;102800.88;;;9.49;89.96
69528;BME280;57136;51.986;4.468;2023-03-04T10:12:11;102803.97;;;9.38;93.24
69528;BME280;57136;51.986;4.468;2023-03-04T10:14:39;102814.22;;;8.73;96.52
69528;BME280;57136;51.986;4.468;2023-03-04T10:17:16;102813.53;;;8.77;98.67
69528;BME280;57136;51.986;4.468;2023-03-04T10:22:14;102808.09;;;8.33;100.00
69528;BME280;57136;51.986;4.468;2023-03-04T10:24:41;102809.91;;;8.74;100.00
69528;BME280;57136;51.986;4.468;2023-03-04T10:27:06;102810.22;;;9.01;100.00
69528;BME280;57136;51.986;4.468;2023-03-04T10:29:35;102798.81;;;8.97;100.00
69528;BME280;57136;51.986;4.468;2023-03-04T10:32:01;102800.53;;;9.61;100.00
69528;BME280;57136;51.986;4.468;2023-03-04T10:34:26;102809.44;;;10.35;98.38
69528;BME280;57136;51.986;4.468;2023-03-04T10:36:55;102810.56;;;10.19;93.11
69528;BME280;57136;51.986;4.468;2023-03-04T10:39:29;102809.44;;;11.08;92.85
69528;BME280;57136;51.986;4.468;2023-03-04T10:41:58;102810.31;;;11.62;88.68
69528;BME280;57136;51.986;4.468;2023-03-04T10:44:23;102803.28;;;11.60;84.43
69528;BME280;57136;51.986;4.468;2023-03-04T10:46:52;102799.22;;;11.98;83.86
69528;BME280;57136;51.986;4.468;2023-03-04T10:49:18;102789.13;;;12.09;85.18
69528;BME280;57136;51.986;4.468;2023-03-04T10:51:47;102794.09;;;12.31;81.31
69528;BME280;57136;51.986;4.468;2023-03-04T10:54:19;102789.47;;;12.84;80.87
69528;BME280;57136;51.986;4.468;2023-03-04T10:56:52;102781.47;;;13.13;80.65
69528;BME280;57136;51.986;4.468;2023-03-04T10:59:29;102789.13;;;13.06;78.37
69528;BME280;57136;51.986;4.468;2023-03-04T11:01:55;102785.34;;;12.61;76.12
69528;BME280;57136;51.986;4.468;2023-03-04T11:04:24;102785.19;;;12.56;78.16
69528;BME280;57136;51.986;4.468;2023-03-04T11:06:50;102784.19;;;12.19;78.32
69528;BME280;57136;51.986;4.468;2023-03-04T11:11:47;102771.59;;;12.68;75.86
69528;BME280;57136;51.986;4.468;2023-03-04T11:16:51;102778.19;;;11.37;79.40
69528;BME280;57136;51.986;4.468;2023-03-04T11:19:17;102778.38;;;10.40;84.36
69528;BME280;57136;51.986;4.468;2023-03-04T11:21:44;102781.09;;;9.31;95.56
69528;BME280;57136;51.986;4.468;2023-03-04T11:24:13;102781.50;;;9.40;98.57
69528;BME280;57136;51.986;4.468;2023-03-04T11:26:47;102775.94;;;8.90;100.00
69528;BME280;57136;51.986;4.468;2023-03-04T11:31:51;102767.97;;;9.28;100.00
69528;BME280;57136;51.986;4.468;2023-03-04T11:36:53;102764.22;;;11.09;95.14
69528;BME280;57136;51.986;4.468;2023-03-04T11:39:23;102750.59;;;12.65;88.67
69528;BME280;57136;51.986;4.468;2023-03-04T11:41:53;102758.44;;;13.00;79.79
69528;BME280;57136;51.986;4.468;2023-03-04T11:44:28;102753.28;;;13.03;78.62
69528;BME280;57136;51.986;4.468;2023-03-04T11:47:03;102753.19;;;12.98;78.15
69528;BME280;57136;51.986;4.468;2023-03-04T11:57:37;102743.16;;;11.87;84.61
69528;BME280;57136;51.986;4.468;2023-03-04T12:05:25;102738.31;;;11.71;81.74
69528;BME280;57136;51.986;4.468;2023-03-04T12:10:37;102742.78;;;10.67;84.36
69528;BME280;57136;51.986;4.468;2023-03-04T12:13:17;102742.47;;;9.19;95.13
69528;BME280;57136;51.986;4.468;2023-03-04T12:15:49;102737.97;;;9.15;99.30
69528;BME280;57136;51.986;4.468;2023-03-04T12:21:09;102727.94;;;8.82;100.00
69528;BME280;57136;51.986;4.468;2023-03-04T12:29:18;102729.03;;;10.22;100.00
69528;BME280;57136;51.986;4.468;2023-03-04T12:36:29;102715.53;;;10.57;98.29
69528;BME280;57136;51.986;4.468;2023-03-04T12:39:13;102715.94;;;10.20;97.72
69528;BME280;57136;51.986;4.468;2023-03-04T12:41:42;102710.66;;;9.70;100.00
69528;BME280;57136;51.986;4.468;2023-03-04T12:44:16;102708.91;;;8.83;100.00
69528;BME280;57136;51.986;4.468;2023-03-04T12:52:02;102708.22;;;8.27;100.00
69528;BME280;57136;51.986;4.468;2023-03-04T12:54:31;102705.13;;;8.35;100.00
69528;BME280;57136;51.986;4.468;2023-03-04T12:57:13;102700.34;;;8.25;100.00
69528;BME280;57136;51.986;4.468;2023-03-04T12:59:42;102697.16;;;9.35;100.00
69528;BME280;57136;51.986;4.468;2023-03-04T13:04:39;102686.06;;;11.71;90.59
69528;BME280;57136;51.986;4.468;2023-03-04T13:07:13;102685.75;;;12.88;88.44
69528;BME280;57136;51.986;4.468;2023-03-04T13:09:54;102681.69;;;13.01;83.09
69528;BME280;57136;51.986;4.468;2023-03-04T13:12:21;102686.63;;;12.20;83.45
69528;BME280;57136;51.986;4.468;2023-03-04T13:17:37;102674.00;;;11.45;89.77
69528;BME280;57136;51.986;4.468;2023-03-04T13:48:42;102658.56;;;9.25;90.02
69528;BME280;57136;51.986;4.468;2023-03-04T13:58:48;102654.16;;;10.41;90.67
69528;BME280;57136;51.986;4.468;2023-03-04T14:01:29;102659.28;;;10.91;84.58
69528;BME280;57136;51.986;4.468;2023-03-04T14:03:56;102657.47;;;11.75;85.41
69528;BME280;57136;51.986;4.468;2023-03-04T14:06:23;102656.56;;;12.04;77.27
69528;BME280;57136;51.986;4.468;2023-03-04T14:08:49;102655.22;;;12.52;75.16
69528;BME280;57136;51.986;4.468;2023-03-04T14:11:32;102642.75;;;12.41;74.81
69528;BME280;57136;51.986;4.468;2023-03-04T14:13:59;102645.50;;;12.14;74.90
69528;BME280;57136;51.986;4.468;2023-03-04T14:16:27;102652.81;;;12.26;74.30
69528;BME280;57136;51.986;4.468;2023-03-04T14:18:56;102647.75;;;10.32;79.94
69528;BME280;57136;51.986;4.468;2023-03-04T14:21:22;102638.47;;;9.66;84.45
69528;BME280;57136;51.986;4.468;2023-03-04T14:23:58;102643.31;;;9.11;86.95
69528;BME280;57136;51.986;4.468;2023-03-04T14:26:23;102638.16;;;9.36;86.97
69528;BME280;57136;51.986;4.468;2023-03-04T14:28:49;102638.69;;;9.72;85.59
69528;BME280;57136;51.986;4.468;2023-03-04T14:31:22;102631.41;;;9.86;84.71
69528;BME280;57136;51.986;4.468;2023-03-04T14:33:49;102631.50;;;10.66;83.46
69528;BME280;57136;51.986;4.468;2023-03-04T14:36:16;102628.00;;;11.79;76.19